sensor_id;sensor_type;location;lat;lon;timestamp;P1;durP1;ratioP1;P2;durP2;ratioP2
7473;SDS011;3778;42.572;23.426;2022-10-16T00:00:53;5.37;;;4.47;;
7473;SDS011;3778;42.572;23.426;2022-10-16T00:03:20;6.87;;;4.40;;
7473;SDS011;3778;42.572;23.426;2022-10-16T00:05:46;6.40;;;4.87;;
7473;SDS011;3778;42.572;23.426;2022-10-16T00:08:13;6.20;;;4.07;;
7473;SDS011;3778;42.572;23.426;2022-10-16T00:10:40;6.13;;;4.10;;
7473;SDS011;3778;42.572;23.426;2022-10-16T00:13:09;8.20;;;5.10;;
7473;SDS011;3778;42.572;23.426;2022-10-16T00:15:36;6.90;;;4.80;;
7473;SDS011;3778;42.572;23.426;2022-10-16T00:18:04;6.70;;;4.83;;
7473;SDS011;3778;42.572;23.426;2022-10-16T00:20:33;8.07;;;5.30;;
7473;SDS011;3778;42.572;23.426;2022-10-16T00:23:02;5.90;;;4.77;;
7473;SDS011;3778;42.572;23.426;2022-10-16T00:25:29;6.13;;;4.33;;
7473;SDS011;3778;42.572;23.426;2022-10-16T00:27:57;7.00;;;4.17;;
7473;SDS011;3778;42.572;23.426;2022-10-16T00:30:26;10.30;;;4.63;;
7473;SDS011;3778;42.572;23.426;2022-10-16T00:32:53;8.67;;;5.83;;
7473;SDS011;3778;42.572;23.426;2022-10-16T00:35:20;8.70;;;5.50;;
7473;SDS011;3778;42.572;23.426;2022-10-16T00:37:47;7.73;;;5.60;;
7473;SDS011;3778;42.572;23.426;2022-10-16T00:40:14;5.20;;;4.67;;
7473;SDS011;3778;42.572;23.426;2022-10-16T00:42:41;6.87;;;4.80;;
7473;SDS011;3778;42.572;23.426;2022-10-16T00:45:08;7.83;;;4.80;;
7473;SDS011;3778;42.572;23.426;2022-10-16T00:47:38;6.63;;;4.63;;
7473;SDS011;3778;42.572;23.426;2022-10-16T00:50:08;20.70;;;6.10;;
7473;SDS011;3778;42.572;23.426;2022-10-16T00:52:38;8.47;;;5.70;;
7473;SDS011;3778;42.572;23.426;2022-10-16T00:55:09;10.53;;;4.93;;
7473;SDS011;3778;42.572;23.426;2022-10-16T00:57:36;7.23;;;5.23;;
7473;SDS011;3778;42.572;23.426;2022-10-16T01:00:04;6.67;;;5.13;;
7473;SDS011;3778;42.572;23.426;2022-10-16T01:02:34;8.60;;;5.07;;
7473;SDS011;3778;42.572;23.426;2022-10-16T01:05:02;9.73;;;5.53;;
7473;SDS011;3778;42.572;23.426;2022-10-16T01:07:33;7.67;;;5.23;;
7473;SDS011;3778;42.572;23.426;2022-10-16T01:10:10;10.53;;;5.67;;
7473;SDS011;3778;42.572;23.426;2022-10-16T01:12:48;6.97;;;5.13;;
7473;SDS011;3778;42.572;23.426;2022-10-16T01:15:21;12.70;;;6.27;;
7473;SDS011;3778;42.572;23.426;2022-10-16T01:17:53;9.13;;;4.50;;
7473;SDS011;3778;42.572;23.426;2022-10-16T01:20:28;7.63;;;4.77;;
7473;SDS011;3778;42.572;23.426;2022-10-16T01:23:09;8.13;;;5.20;;
7473;SDS011;3778;42.572;23.426;2022-10-16T01:25:59;7.80;;;6.13;;
7473;SDS011;3778;42.572;23.426;2022-10-16T01:28:41;6.60;;;5.20;;
7473;SDS011;3778;42.572;23.426;2022-10-16T01:31:10;10.43;;;5.90;;
7473;SDS011;3778;42.572;23.426;2022-10-16T01:33:44;11.70;;;5.30;;
7473;SDS011;3778;42.572;23.426;2022-10-16T01:36:15;9.20;;;5.73;;
7473;SDS011;3778;42.572;23.426;2022-10-16T01:38:45;8.83;;;5.10;;
7473;SDS011;3778;42.572;23.426;2022-10-16T01:41:17;8.23;;;5.60;;
7473;SDS011;3778;42.572;23.426;2022-10-16T01:43:48;10.23;;;6.13;;
7473;SDS011;3778;42.572;23.426;2022-10-16T01:46:18;7.47;;;5.77;;
7473;SDS011;3778;42.572;23.426;2022-10-16T01:48:48;7.67;;;5.43;;
7473;SDS011;3778;42.572;23.426;2022-10-16T01:51:17;15.60;;;7.10;;
7473;SDS011;3778;42.572;23.426;2022-10-16T01:53:48;11.77;;;6.07;;
7473;SDS011;3778;42.572;23.426;2022-10-16T01:56:18;11.27;;;5.67;;
7473;SDS011;3778;42.572;23.426;2022-10-16T01:58:52;9.07;;;6.13;;
7473;SDS011;3778;42.572;23.426;2022-10-16T02:01:23;7.03;;;5.17;;
7473;SDS011;3778;42.572;23.426;2022-10-16T02:03:53;8.57;;;6.00;;
7473;SDS011;3778;42.572;23.426;2022-10-16T02:06:23;10.07;;;6.10;;
7473;SDS011;3778;42.572;23.426;2022-10-16T02:08:50;8.17;;;5.40;;
7473;SDS011;3778;42.572;23.426;2022-10-16T02:11:17;7.40;;;5.63;;
7473;SDS011;3778;42.572;23.426;2022-10-16T02:13:45;14.87;;;5.97;;
7473;SDS011;3778;42.572;23.426;2022-10-16T02:16:16;11.87;;;6.07;;
7473;SDS011;3778;42.572;23.426;2022-10-16T02:18:43;10.30;;;6.67;;
7473;SDS011;3778;42.572;23.426;2022-10-16T02:21:12;12.10;;;6.17;;
7473;SDS011;3778;42.572;23.426;2022-10-16T02:23:45;10.43;;;6.50;;
7473;SDS011;3778;42.572;23.426;2022-10-16T02:26:23;9.73;;;6.73;;
7473;SDS011;3778;42.572;23.426;2022-10-16T02:28:55;12.20;;;7.90;;
7473;SDS011;3778;42.572;23.426;2022-10-16T02:31:31;11.27;;;7.20;;
7473;SDS011;3778;42.572;23.426;2022-10-16T02:34:02;10.43;;;7.30;;
7473;SDS011;3778;42.572;23.426;2022-10-16T02:36:32;8.87;;;6.37;;
7473;SDS011;3778;42.572;23.426;2022-10-16T02:39:01;11.43;;;6.33;;
7473;SDS011;3778;42.572;23.426;2022-10-16T02:41:30;9.80;;;7.40;;
7473;SDS011;3778;42.572;23.426;2022-10-16T02:43:57;11.53;;;6.77;;
7473;SDS011;3778;42.572;23.426;2022-10-16T02:46:23;11.67;;;7.27;;
7473;SDS011;3778;42.572;23.426;2022-10-16T02:48:51;10.40;;;7.13;;
7473;SDS011;3778;42.572;23.426;2022-10-16T02:51:18;11.37;;;6.73;;
7473;SDS011;3778;42.572;23.426;2022-10-16T02:53:45;17.67;;;8.13;;
7473;SDS011;3778;42.572;23.426;2022-10-16T02:56:12;14.90;;;8.17;;
7473;SDS011;3778;42.572;23.426;2022-10-16T02:58:39;10.43;;;6.77;;
7473;SDS011;3778;42.572;23.426;2022-10-16T03:01:05;14.30;;;7.93;;
7473;SDS011;3778;42.572;23.426;2022-10-16T03:03:32;10.83;;;7.10;;
7473;SDS011;3778;42.572;23.426;2022-10-16T03:06:01;10.23;;;7.00;;
7473;SDS011;3778;42.572;23.426;2022-10-16T03:08:28;9.87;;;7.20;;
7473;SDS011;3778;42.572;23.426;2022-10-16T03:10:55;13.67;;;8.13;;
7473;SDS011;3778;42.572;23.426;2022-10-16T03:13:22;15.13;;;8.63;;
7473;SDS011;3778;42.572;23.426;2022-10-16T03:15:49;13.97;;;8.33;;
7473;SDS011;3778;42.572;23.426;2022-10-16T03:18:16;13.17;;;9.13;;
7473;SDS011;3778;42.572;23.426;2022-10-16T03:20:42;11.17;;;6.93;;
7473;SDS011;3778;42.572;23.426;2022-10-16T03:23:11;14.83;;;8.00;;
7473;SDS011;3778;42.572;23.426;2022-10-16T03:25:38;17.40;;;8.63;;
7473;SDS011;3778;42.572;23.426;2022-10-16T03:28:05;13.90;;;9.30;;
7473;SDS011;3778;42.572;23.426;2022-10-16T03:30:32;13.17;;;8.77;;
7473;SDS011;3778;42.572;23.426;2022-10-16T03:32:59;15.77;;;9.37;;
7473;SDS011;3778;42.572;23.426;2022-10-16T03:35:25;16.20;;;9.57;;
7473;SDS011;3778;42.572;23.426;2022-10-16T03:37:52;12.93;;;8.73;;
7473;SDS011;3778;42.572;23.426;2022-10-16T03:40:20;15.07;;;8.77;;
7473;SDS011;3778;42.572;23.426;2022-10-16T03:42:47;16.40;;;9.97;;
7473;SDS011;3778;42.572;23.426;2022-10-16T03:45:14;17.90;;;9.93;;
7473;SDS011;3778;42.572;23.426;2022-10-16T03:47:40;16.30;;;9.13;;
7473;SDS011;3778;42.572;23.426;2022-10-16T03:50:07;20.40;;;9.27;;
7473;SDS011;3778;42.572;23.426;2022-10-16T03:52:34;15.60;;;9.63;;
7473;SDS011;3778;42.572;23.426;2022-10-16T03:55:01;13.77;;;8.93;;
7473;SDS011;3778;42.572;23.426;2022-10-16T03:57:30;15.03;;;8.57;;
7473;SDS011;3778;42.572;23.426;2022-10-16T03:59:57;15.00;;;9.13;;
7473;SDS011;3778;42.572;23.426;2022-10-16T04:02:23;13.40;;;9.00;;
7473;SDS011;3778;42.572;23.426;2022-10-16T04:04:50;16.20;;;9.20;;
7473;SDS011;3778;42.572;23.426;2022-10-16T04:07:17;14.27;;;8.27;;
7473;SDS011;3778;42.572;23.426;2022-10-16T04:09:44;15.73;;;8.80;;
7473;SDS011;3778;42.572;23.426;2022-10-16T04:12:11;14.03;;;8.90;;
7473;SDS011;3778;42.572;23.426;2022-10-16T04:14:39;15.97;;;9.37;;
7473;SDS011;3778;42.572;23.426;2022-10-16T04:17:06;14.37;;;8.40;;
7473;SDS011;3778;42.572;23.426;2022-10-16T04:19:32;14.30;;;8.77;;
7473;SDS011;3778;42.572;23.426;2022-10-16T04:21:59;15.60;;;8.30;;
7473;SDS011;3778;42.572;23.426;2022-10-16T04:24:26;15.83;;;8.60;;
7473;SDS011;3778;42.572;23.426;2022-10-16T04:26:53;12.90;;;8.33;;
7473;SDS011;3778;42.572;23.426;2022-10-16T04:29:20;15.00;;;8.63;;
7473;SDS011;3778;42.572;23.426;2022-10-16T04:31:48;15.47;;;9.73;;
7473;SDS011;3778;42.572;23.426;2022-10-16T04:34:15;14.37;;;8.80;;
7473;SDS011;3778;42.572;23.426;2022-10-16T04:36:41;11.63;;;7.50;;
7473;SDS011;3778;42.572;23.426;2022-10-16T04:39:08;18.33;;;9.00;;
7473;SDS011;3778;42.572;23.426;2022-10-16T04:41:35;14.07;;;8.97;;
7473;SDS011;3778;42.572;23.426;2022-10-16T04:44:02;16.17;;;10.03;;
7473;SDS011;3778;42.572;23.426;2022-10-16T04:46:28;13.53;;;9.07;;
7473;SDS011;3778;42.572;23.426;2022-10-16T04:48:57;14.33;;;9.27;;
7473;SDS011;3778;42.572;23.426;2022-10-16T04:51:24;13.07;;;8.00;;
7473;SDS011;3778;42.572;23.426;2022-10-16T04:53:51;12.93;;;8.03;;
7473;SDS011;3778;42.572;23.426;2022-10-16T04:56:19;12.63;;;8.10;;
7473;SDS011;3778;42.572;23.426;2022-10-16T04:58:46;13.33;;;8.03;;
7473;SDS011;3778;42.572;23.426;2022-10-16T05:01:13;16.40;;;9.27;;
7473;SDS011;3778;42.572;23.426;2022-10-16T05:03:40;18.87;;;9.20;;
7473;SDS011;3778;42.572;23.426;2022-10-16T05:06:08;15.30;;;9.03;;
7473;SDS011;3778;42.572;23.426;2022-10-16T05:08:34;12.60;;;8.27;;
7473;SDS011;3778;42.572;23.426;2022-10-16T05:11:01;18.73;;;8.63;;
7473;SDS011;3778;42.572;23.426;2022-10-16T05:13:28;14.83;;;8.43;;
7473;SDS011;3778;42.572;23.426;2022-10-16T05:15:55;15.33;;;8.63;;
7473;SDS011;3778;42.572;23.426;2022-10-16T05:18:22;13.37;;;7.97;;
7473;SDS011;3778;42.572;23.426;2022-10-16T05:20:49;16.37;;;8.17;;
7473;SDS011;3778;42.572;23.426;2022-10-16T05:23:17;12.80;;;7.87;;
7473;SDS011;3778;42.572;23.426;2022-10-16T05:25:51;16.97;;;8.60;;
7473;SDS011;3778;42.572;23.426;2022-10-16T05:28:19;13.33;;;7.93;;
7473;SDS011;3778;42.572;23.426;2022-10-16T05:30:46;17.00;;;8.63;;
7473;SDS011;3778;42.572;23.426;2022-10-16T05:33:13;13.97;;;8.20;;
7473;SDS011;3778;42.572;23.426;2022-10-16T05:35:39;12.13;;;7.77;;
7473;SDS011;3778;42.572;23.426;2022-10-16T05:38:06;12.73;;;7.80;;
7473;SDS011;3778;42.572;23.426;2022-10-16T05:40:34;12.33;;;8.83;;
7473;SDS011;3778;42.572;23.426;2022-10-16T05:43:01;14.40;;;8.13;;
7473;SDS011;3778;42.572;23.426;2022-10-16T05:45:28;12.70;;;8.27;;
7473;SDS011;3778;42.572;23.426;2022-10-16T05:47:55;15.40;;;8.57;;
7473;SDS011;3778;42.572;23.426;2022-10-16T05:50:21;14.50;;;8.43;;
7473;SDS011;3778;42.572;23.426;2022-10-16T05:52:48;12.77;;;7.87;;
7473;SDS011;3778;42.572;23.426;2022-10-16T05:55:15;9.43;;;7.00;;
7473;SDS011;3778;42.572;23.426;2022-10-16T05:57:43;14.73;;;7.63;;
7473;SDS011;3778;42.572;23.426;2022-10-16T06:00:10;12.03;;;8.67;;
7473;SDS011;3778;42.572;23.426;2022-10-16T06:02:37;11.13;;;7.77;;
7473;SDS011;3778;42.572;23.426;2022-10-16T06:05:04;10.87;;;7.40;;
7473;SDS011;3778;42.572;23.426;2022-10-16T06:07:33;13.80;;;7.73;;
7473;SDS011;3778;42.572;23.426;2022-10-16T06:10:01;12.57;;;8.67;;
7473;SDS011;3778;42.572;23.426;2022-10-16T06:12:29;15.70;;;8.60;;
7473;SDS011;3778;42.572;23.426;2022-10-16T06:14:57;11.33;;;7.70;;
7473;SDS011;3778;42.572;23.426;2022-10-16T06:17:24;13.73;;;6.77;;
7473;SDS011;3778;42.572;23.426;2022-10-16T06:19:51;9.10;;;6.87;;
7473;SDS011;3778;42.572;23.426;2022-10-16T06:22:17;9.93;;;8.13;;
7473;SDS011;3778;42.572;23.426;2022-10-16T06:24:44;10.70;;;7.37;;
7473;SDS011;3778;42.572;23.426;2022-10-16T06:27:12;11.60;;;6.60;;
7473;SDS011;3778;42.572;23.426;2022-10-16T06:29:39;13.07;;;7.90;;
7473;SDS011;3778;42.572;23.426;2022-10-16T06:32:09;12.50;;;7.20;;
7473;SDS011;3778;42.572;23.426;2022-10-16T06:34:36;11.87;;;6.80;;
7473;SDS011;3778;42.572;23.426;2022-10-16T06:37:05;11.90;;;7.60;;
7473;SDS011;3778;42.572;23.426;2022-10-16T06:39:31;13.40;;;7.63;;
7473;SDS011;3778;42.572;23.426;2022-10-16T06:41:58;11.80;;;7.73;;
7473;SDS011;3778;42.572;23.426;2022-10-16T06:44:25;12.77;;;7.90;;
7473;SDS011;3778;42.572;23.426;2022-10-16T06:46:52;13.70;;;7.03;;
7473;SDS011;3778;42.572;23.426;2022-10-16T06:49:20;11.90;;;7.37;;
7473;SDS011;3778;42.572;23.426;2022-10-16T06:51:48;11.60;;;7.03;;
7473;SDS011;3778;42.572;23.426;2022-10-16T06:54:15;10.67;;;7.37;;
7473;SDS011;3778;42.572;23.426;2022-10-16T06:56:42;12.43;;;7.40;;
7473;SDS011;3778;42.572;23.426;2022-10-16T06:59:09;12.90;;;7.37;;
7473;SDS011;3778;42.572;23.426;2022-10-16T07:01:36;9.33;;;6.93;;
7473;SDS011;3778;42.572;23.426;2022-10-16T07:04:03;13.50;;;7.60;;
7473;SDS011;3778;42.572;23.426;2022-10-16T07:06:32;11.67;;;8.10;;
7473;SDS011;3778;42.572;23.426;2022-10-16T07:09:00;8.63;;;7.13;;
7473;SDS011;3778;42.572;23.426;2022-10-16T07:11:29;10.03;;;7.07;;
7473;SDS011;3778;42.572;23.426;2022-10-16T07:13:56;10.60;;;7.40;;
7473;SDS011;3778;42.572;23.426;2022-10-16T07:16:23;11.33;;;7.20;;
7473;SDS011;3778;42.572;23.426;2022-10-16T07:18:51;9.87;;;6.83;;
7473;SDS011;3778;42.572;23.426;2022-10-16T07:21:23;13.13;;;7.17;;
7473;SDS011;3778;42.572;23.426;2022-10-16T07:23:52;10.80;;;7.40;;
7473;SDS011;3778;42.572;23.426;2022-10-16T07:26:20;9.93;;;6.60;;
7473;SDS011;3778;42.572;23.426;2022-10-16T07:28:47;12.53;;;7.17;;
7473;SDS011;3778;42.572;23.426;2022-10-16T07:31:15;11.17;;;7.07;;
7473;SDS011;3778;42.572;23.426;2022-10-16T07:33:44;9.07;;;6.43;;
7473;SDS011;3778;42.572;23.426;2022-10-16T07:36:13;11.43;;;6.70;;
7473;SDS011;3778;42.572;23.426;2022-10-16T07:38:41;9.33;;;6.27;;
7473;SDS011;3778;42.572;23.426;2022-10-16T07:41:10;10.30;;;6.30;;
7473;SDS011;3778;42.572;23.426;2022-10-16T07:43:39;9.43;;;6.27;;
7473;SDS011;3778;42.572;23.426;2022-10-16T07:46:06;11.80;;;6.83;;
7473;SDS011;3778;42.572;23.426;2022-10-16T07:48:33;14.03;;;7.43;;
7473;SDS011;3778;42.572;23.426;2022-10-16T07:51:01;9.70;;;6.70;;
7473;SDS011;3778;42.572;23.426;2022-10-16T07:53:29;8.77;;;6.90;;
7473;SDS011;3778;42.572;23.426;2022-10-16T07:55:57;8.80;;;6.33;;
7473;SDS011;3778;42.572;23.426;2022-10-16T07:58:26;9.67;;;6.73;;
7473;SDS011;3778;42.572;23.426;2022-10-16T08:00:53;8.13;;;6.40;;
7473;SDS011;3778;42.572;23.426;2022-10-16T08:03:20;9.23;;;6.47;;
7473;SDS011;3778;42.572;23.426;2022-10-16T08:05:47;9.60;;;6.40;;
7473;SDS011;3778;42.572;23.426;2022-10-16T08:08:14;9.23;;;6.63;;
7473;SDS011;3778;42.572;23.426;2022-10-16T08:10:42;7.83;;;5.73;;
7473;SDS011;3778;42.572;23.426;2022-10-16T08:13:09;8.80;;;6.40;;
7473;SDS011;3778;42.572;23.426;2022-10-16T08:15:37;9.57;;;5.97;;
7473;SDS011;3778;42.572;23.426;2022-10-16T08:18:04;6.90;;;5.83;;
7473;SDS011;3778;42.572;23.426;2022-10-16T08:20:32;10.17;;;6.43;;
7473;SDS011;3778;42.572;23.426;2022-10-16T08:22:59;7.57;;;5.90;;
7473;SDS011;3778;42.572;23.426;2022-10-16T08:25:27;8.13;;;6.10;;
7473;SDS011;3778;42.572;23.426;2022-10-16T08:27:54;7.23;;;5.40;;
7473;SDS011;3778;42.572;23.426;2022-10-16T08:30:22;7.47;;;5.83;;
7473;SDS011;3778;42.572;23.426;2022-10-16T08:32:51;6.93;;;5.23;;
7473;SDS011;3778;42.572;23.426;2022-10-16T08:35:18;8.70;;;5.43;;
7473;SDS011;3778;42.572;23.426;2022-10-16T08:37:45;14.07;;;4.50;;
7473;SDS011;3778;42.572;23.426;2022-10-16T08:40:15;5.80;;;4.60;;
7473;SDS011;3778;42.572;23.426;2022-10-16T08:42:47;6.43;;;4.70;;
7473;SDS011;3778;42.572;23.426;2022-10-16T08:45:34;8.87;;;4.93;;
7473;SDS011;3778;42.572;23.426;2022-10-16T08:48:17;9.57;;;5.00;;
7473;SDS011;3778;42.572;23.426;2022-10-16T08:50:48;6.77;;;4.73;;
7473;SDS011;3778;42.572;23.426;2022-10-16T08:53:17;7.83;;;5.30;;
7473;SDS011;3778;42.572;23.426;2022-10-16T08:56:02;6.47;;;5.00;;
7473;SDS011;3778;42.572;23.426;2022-10-16T08:58:30;5.90;;;4.47;;
7473;SDS011;3778;42.572;23.426;2022-10-16T09:00:58;9.53;;;5.33;;
7473;SDS011;3778;42.572;23.426;2022-10-16T09:03:36;8.37;;;5.90;;
7473;SDS011;3778;42.572;23.426;2022-10-16T09:06:29;14.03;;;5.10;;
7473;SDS011;3778;42.572;23.426;2022-10-16T09:09:09;8.30;;;5.33;;
7473;SDS011;3778;42.572;23.426;2022-10-16T09:11:55;10.20;;;6.07;;
7473;SDS011;3778;42.572;23.426;2022-10-16T09:14:40;6.80;;;4.97;;
7473;SDS011;3778;42.572;23.426;2022-10-16T09:17:25;9.43;;;4.97;;
7473;SDS011;3778;42.572;23.426;2022-10-16T09:20:03;15.47;;;5.77;;
7473;SDS011;3778;42.572;23.426;2022-10-16T09:22:45;5.67;;;4.57;;
7473;SDS011;3778;42.572;23.426;2022-10-16T09:25:14;8.87;;;4.67;;
7473;SDS011;3778;42.572;23.426;2022-10-16T09:27:43;8.47;;;5.40;;
7473;SDS011;3778;42.572;23.426;2022-10-16T09:30:13;7.80;;;5.50;;
7473;SDS011;3778;42.572;23.426;2022-10-16T09:32:43;5.43;;;4.93;;
7473;SDS011;3778;42.572;23.426;2022-10-16T09:35:13;6.40;;;4.70;;
7473;SDS011;3778;42.572;23.426;2022-10-16T09:37:43;6.67;;;4.73;;
7473;SDS011;3778;42.572;23.426;2022-10-16T09:40:13;6.93;;;4.87;;
7473;SDS011;3778;42.572;23.426;2022-10-16T09:42:50;9.20;;;5.00;;
7473;SDS011;3778;42.572;23.426;2022-10-16T09:45:23;11.97;;;5.23;;
7473;SDS011;3778;42.572;23.426;2022-10-16T09:47:50;5.77;;;4.50;;
7473;SDS011;3778;42.572;23.426;2022-10-16T09:50:22;6.63;;;4.40;;
7473;SDS011;3778;42.572;23.426;2022-10-16T09:53:01;6.47;;;4.80;;
7473;SDS011;3778;42.572;23.426;2022-10-16T09:55:30;6.40;;;4.30;;
7473;SDS011;3778;42.572;23.426;2022-10-16T09:57:59;5.90;;;4.60;;
7473;SDS011;3778;42.572;23.426;2022-10-16T10:00:26;5.33;;;3.63;;
7473;SDS011;3778;42.572;23.426;2022-10-16T10:02:52;9.40;;;4.03;;
7473;SDS011;3778;42.572;23.426;2022-10-16T10:05:23;6.27;;;4.13;;
7473;SDS011;3778;42.572;23.426;2022-10-16T10:07:54;5.03;;;3.77;;
7473;SDS011;3778;42.572;23.426;2022-10-16T10:10:25;8.33;;;4.67;;
7473;SDS011;3778;42.572;23.426;2022-10-16T10:12:53;5.80;;;3.80;;
7473;SDS011;3778;42.572;23.426;2022-10-16T10:15:23;5.53;;;3.80;;
7473;SDS011;3778;42.572;23.426;2022-10-16T10:17:52;6.53;;;3.87;;
7473;SDS011;3778;42.572;23.426;2022-10-16T10:20:25;7.17;;;4.37;;
7473;SDS011;3778;42.572;23.426;2022-10-16T10:22:54;5.77;;;4.03;;
7473;SDS011;3778;42.572;23.426;2022-10-16T10:25:24;7.37;;;4.83;;
7473;SDS011;3778;42.572;23.426;2022-10-16T10:28:14;4.97;;;3.90;;
7473;SDS011;3778;42.572;23.426;2022-10-16T10:30:49;5.67;;;3.97;;
7473;SDS011;3778;42.572;23.426;2022-10-16T10:33:27;5.93;;;3.70;;
7473;SDS011;3778;42.572;23.426;2022-10-16T10:36:05;6.97;;;3.93;;
7473;SDS011;3778;42.572;23.426;2022-10-16T10:38:49;7.47;;;5.10;;
7473;SDS011;3778;42.572;23.426;2022-10-16T10:41:24;7.43;;;4.17;;
7473;SDS011;3778;42.572;23.426;2022-10-16T10:44:11;7.00;;;4.23;;
7473;SDS011;3778;42.572;23.426;2022-10-16T10:46:48;6.53;;;4.07;;
7473;SDS011;3778;42.572;23.426;2022-10-16T10:49:22;7.27;;;4.23;;
7473;SDS011;3778;42.572;23.426;2022-10-16T10:52:10;7.10;;;4.03;;
7473;SDS011;3778;42.572;23.426;2022-10-16T10:54:51;7.47;;;4.10;;
7473;SDS011;3778;42.572;23.426;2022-10-16T10:57:28;6.10;;;4.23;;
7473;SDS011;3778;42.572;23.426;2022-10-16T11:00:02;9.13;;;4.73;;
7473;SDS011;3778;42.572;23.426;2022-10-16T11:02:44;11.03;;;7.03;;
7473;SDS011;3778;42.572;23.426;2022-10-16T11:05:26;5.80;;;4.40;;
7473;SDS011;3778;42.572;23.426;2022-10-16T11:08:08;4.77;;;4.23;;
7473;SDS011;3778;42.572;23.426;2022-10-16T11:10:42;7.67;;;4.20;;
7473;SDS011;3778;42.572;23.426;2022-10-16T11:13:17;16.40;;;4.80;;
7473;SDS011;3778;42.572;23.426;2022-10-16T11:15:51;7.13;;;4.00;;
7473;SDS011;3778;42.572;23.426;2022-10-16T11:18:22;6.00;;;4.57;;
7473;SDS011;3778;42.572;23.426;2022-10-16T11:20:56;8.23;;;4.13;;
7473;SDS011;3778;42.572;23.426;2022-10-16T11:23:28;6.07;;;4.07;;
7473;SDS011;3778;42.572;23.426;2022-10-16T11:26:00;5.53;;;3.70;;
7473;SDS011;3778;42.572;23.426;2022-10-16T11:28:32;6.57;;;4.20;;
7473;SDS011;3778;42.572;23.426;2022-10-16T11:31:05;9.50;;;4.23;;
7473;SDS011;3778;42.572;23.426;2022-10-16T11:33:38;4.90;;;3.80;;
7473;SDS011;3778;42.572;23.426;2022-10-16T11:36:10;7.33;;;3.47;;
7473;SDS011;3778;42.572;23.426;2022-10-16T11:38:44;5.83;;;3.93;;
7473;SDS011;3778;42.572;23.426;2022-10-16T11:41:18;5.77;;;3.57;;
7473;SDS011;3778;42.572;23.426;2022-10-16T11:43:52;8.23;;;3.70;;
7473;SDS011;3778;42.572;23.426;2022-10-16T11:46:30;4.13;;;2.60;;
7473;SDS011;3778;42.572;23.426;2022-10-16T11:49:00;3.07;;;2.77;;
7473;SDS011;3778;42.572;23.426;2022-10-16T11:51:36;3.00;;;2.60;;
7473;SDS011;3778;42.572;23.426;2022-10-16T11:54:08;3.17;;;2.70;;
7473;SDS011;3778;42.572;23.426;2022-10-16T11:56:47;3.87;;;2.73;;
7473;SDS011;3778;42.572;23.426;2022-10-16T11:59:19;3.23;;;2.77;;
7473;SDS011;3778;42.572;23.426;2022-10-16T12:01:52;6.60;;;3.53;;
7473;SDS011;3778;42.572;23.426;2022-10-16T12:04:25;3.67;;;2.73;;
7473;SDS011;3778;42.572;23.426;2022-10-16T12:06:59;2.53;;;2.33;;
7473;SDS011;3778;42.572;23.426;2022-10-16T12:09:32;3.03;;;2.30;;
7473;SDS011;3778;42.572;23.426;2022-10-16T12:12:03;3.20;;;2.70;;
7473;SDS011;3778;42.572;23.426;2022-10-16T12:14:36;3.10;;;2.60;;
7473;SDS011;3778;42.572;23.426;2022-10-16T12:19:57;3.50;;;3.10;;
7473;SDS011;3778;42.572;23.426;2022-10-16T12:22:28;4.87;;;2.77;;
7473;SDS011;3778;42.572;23.426;2022-10-16T12:24:58;3.23;;;2.50;;
7473;SDS011;3778;42.572;23.426;2022-10-16T12:27:27;4.57;;;2.40;;
7473;SDS011;3778;42.572;23.426;2022-10-16T12:29:56;4.37;;;2.60;;
7473;SDS011;3778;42.572;23.426;2022-10-16T12:32:27;5.80;;;2.47;;
7473;SDS011;3778;42.572;23.426;2022-10-16T12:34:56;2.43;;;2.23;;
7473;SDS011;3778;42.572;23.426;2022-10-16T12:37:25;3.90;;;2.93;;
7473;SDS011;3778;42.572;23.426;2022-10-16T12:39:54;5.20;;;2.63;;
7473;SDS011;3778;42.572;23.426;2022-10-16T12:42:31;3.43;;;2.53;;
7473;SDS011;3778;42.572;23.426;2022-10-16T12:45:00;6.90;;;2.53;;
7473;SDS011;3778;42.572;23.426;2022-10-16T12:47:37;4.63;;;3.00;;
7473;SDS011;3778;42.572;23.426;2022-10-16T12:50:24;6.33;;;2.70;;
7473;SDS011;3778;42.572;23.426;2022-10-16T12:52:52;3.93;;;2.57;;
7473;SDS011;3778;42.572;23.426;2022-10-16T12:55:20;5.00;;;2.60;;
7473;SDS011;3778;42.572;23.426;2022-10-16T12:57:56;4.53;;;2.60;;
7473;SDS011;3778;42.572;23.426;2022-10-16T13:00:35;5.83;;;2.60;;
7473;SDS011;3778;42.572;23.426;2022-10-16T13:06:12;5.13;;;3.17;;
7473;SDS011;3778;42.572;23.426;2022-10-16T13:08:54;3.67;;;2.97;;
7473;SDS011;3778;42.572;23.426;2022-10-16T13:11:45;4.30;;;2.70;;
7473;SDS011;3778;42.572;23.426;2022-10-16T13:14:28;7.07;;;3.23;;
7473;SDS011;3778;42.572;23.426;2022-10-16T13:17:15;8.17;;;4.00;;
7473;SDS011;3778;42.572;23.426;2022-10-16T13:19:51;6.30;;;3.10;;
7473;SDS011;3778;42.572;23.426;2022-10-16T13:22:27;9.33;;;3.93;;
7473;SDS011;3778;42.572;23.426;2022-10-16T13:25:02;7.60;;;2.83;;
7473;SDS011;3778;42.572;23.426;2022-10-16T13:27:41;5.17;;;3.07;;
7473;SDS011;3778;42.572;23.426;2022-10-16T13:30:18;3.70;;;2.80;;
7473;SDS011;3778;42.572;23.426;2022-10-16T13:32:47;5.13;;;2.70;;
7473;SDS011;3778;42.572;23.426;2022-10-16T13:35:21;3.73;;;2.90;;
7473;SDS011;3778;42.572;23.426;2022-10-16T13:38:02;4.37;;;2.90;;
7473;SDS011;3778;42.572;23.426;2022-10-16T13:40:30;6.70;;;3.60;;
7473;SDS011;3778;42.572;23.426;2022-10-16T13:42:59;5.93;;;4.10;;
7473;SDS011;3778;42.572;23.426;2022-10-16T13:45:28;3.30;;;2.80;;
7473;SDS011;3778;42.572;23.426;2022-10-16T13:48:01;4.23;;;3.30;;
7473;SDS011;3778;42.572;23.426;2022-10-16T13:50:29;3.87;;;3.07;;
7473;SDS011;3778;42.572;23.426;2022-10-16T13:53:03;4.53;;;3.70;;
7473;SDS011;3778;42.572;23.426;2022-10-16T13:55:30;4.90;;;3.33;;
7473;SDS011;3778;42.572;23.426;2022-10-16T13:58:04;6.33;;;3.13;;
7473;SDS011;3778;42.572;23.426;2022-10-16T14:00:34;5.07;;;3.07;;
7473;SDS011;3778;42.572;23.426;2022-10-16T14:03:01;3.77;;;3.23;;
7473;SDS011;3778;42.572;23.426;2022-10-16T14:05:31;6.53;;;4.07;;
7473;SDS011;3778;42.572;23.426;2022-10-16T14:07:58;13.57;;;3.80;;
7473;SDS011;3778;42.572;23.426;2022-10-16T14:10:26;3.33;;;2.73;;
7473;SDS011;3778;42.572;23.426;2022-10-16T14:12:56;5.50;;;2.87;;
7473;SDS011;3778;42.572;23.426;2022-10-16T14:15:25;3.53;;;2.40;;
7473;SDS011;3778;42.572;23.426;2022-10-16T14:17:54;6.67;;;3.70;;
7473;SDS011;3778;42.572;23.426;2022-10-16T14:20:22;5.57;;;3.03;;
7473;SDS011;3778;42.572;23.426;2022-10-16T14:22:59;11.97;;;2.80;;
7473;SDS011;3778;42.572;23.426;2022-10-16T14:25:29;5.30;;;3.27;;
7473;SDS011;3778;42.572;23.426;2022-10-16T14:27:58;9.40;;;3.70;;
7473;SDS011;3778;42.572;23.426;2022-10-16T14:30:27;6.10;;;3.57;;
7473;SDS011;3778;42.572;23.426;2022-10-16T14:32:57;4.50;;;3.03;;
7473;SDS011;3778;42.572;23.426;2022-10-16T14:35:26;4.33;;;2.50;;
7473;SDS011;3778;42.572;23.426;2022-10-16T14:37:55;3.27;;;2.80;;
7473;SDS011;3778;42.572;23.426;2022-10-16T14:40:24;10.03;;;2.90;;
7473;SDS011;3778;42.572;23.426;2022-10-16T14:42:52;4.40;;;2.53;;
7473;SDS011;3778;42.572;23.426;2022-10-16T14:45:19;24.87;;;10.40;;
7473;SDS011;3778;42.572;23.426;2022-10-16T14:47:48;6.90;;;3.97;;
7473;SDS011;3778;42.572;23.426;2022-10-16T14:50:18;4.43;;;3.10;;
7473;SDS011;3778;42.572;23.426;2022-10-16T14:52:46;8.50;;;3.60;;
7473;SDS011;3778;42.572;23.426;2022-10-16T14:55:12;17.67;;;5.53;;
7473;SDS011;3778;42.572;23.426;2022-10-16T14:57:39;7.07;;;3.80;;
7473;SDS011;3778;42.572;23.426;2022-10-16T15:00:09;14.67;;;4.57;;
7473;SDS011;3778;42.572;23.426;2022-10-16T15:02:42;5.27;;;2.90;;
7473;SDS011;3778;42.572;23.426;2022-10-16T15:05:14;5.40;;;3.27;;
7473;SDS011;3778;42.572;23.426;2022-10-16T15:07:44;4.23;;;3.30;;
7473;SDS011;3778;42.572;23.426;2022-10-16T15:10:11;5.03;;;3.07;;
7473;SDS011;3778;42.572;23.426;2022-10-16T15:12:38;3.60;;;3.23;;
7473;SDS011;3778;42.572;23.426;2022-10-16T15:15:15;6.20;;;3.70;;
7473;SDS011;3778;42.572;23.426;2022-10-16T15:17:50;6.37;;;3.60;;
7473;SDS011;3778;42.572;23.426;2022-10-16T15:20:19;6.77;;;3.77;;